sensor_id;sensor_type;location;lat;lon;timestamp;P1;durP1;ratioP1;P2;durP2;ratioP2
15697;SDS011;7949;48.726;9.102;2022-11-15T00:02:09;3.73;;;2.40;;
15697;SDS011;7949;48.726;9.102;2022-11-15T00:04:36;4.67;;;2.47;;
15697;SDS011;7949;48.726;9.102;2022-11-15T00:07:04;3.33;;;2.00;;
15697;SDS011;7949;48.726;9.102;2022-11-15T00:09:31;4.90;;;2.30;;
15697;SDS011;7949;48.726;9.102;2022-11-15T00:11:57;3.87;;;2.00;;
15697;SDS011;7949;48.726;9.102;2022-11-15T00:14:24;5.63;;;1.90;;
15697;SDS011;7949;48.726;9.102;2022-11-15T00:16:51;4.30;;;1.90;;
15697;SDS011;7949;48.726;9.102;2022-11-15T00:19:18;4.37;;;2.23;;
15697;SDS011;7949;48.726;9.102;2022-11-15T00:21:44;3.47;;;2.07;;
15697;SDS011;7949;48.726;9.102;2022-11-15T00:24:12;3.37;;;1.83;;
15697;SDS011;7949;48.726;9.102;2022-11-15T00:26:39;3.87;;;1.80;;
15697;SDS011;7949;48.726;9.102;2022-11-15T00:29:06;4.27;;;2.47;;
15697;SDS011;7949;48.726;9.102;2022-11-15T00:31:33;4.43;;;2.10;;
15697;SDS011;7949;48.726;9.102;2022-11-15T00:34:00;4.43;;;2.10;;
15697;SDS011;7949;48.726;9.102;2022-11-15T00:36:26;3.63;;;1.93;;
15697;SDS011;7949;48.726;9.102;2022-11-15T00:38:53;2.60;;;1.87;;
15697;SDS011;7949;48.726;9.102;2022-11-15T00:41:21;3.60;;;2.13;;
15697;SDS011;7949;48.726;9.102;2022-11-15T00:43:48;3.73;;;2.10;;
15697;SDS011;7949;48.726;9.102;2022-11-15T00:46:15;4.87;;;2.33;;
15697;SDS011;7949;48.726;9.102;2022-11-15T00:48:41;3.07;;;1.70;;
15697;SDS011;7949;48.726;9.102;2022-11-15T00:51:08;4.27;;;2.03;;
15697;SDS011;7949;48.726;9.102;2022-11-15T00:53:35;4.03;;;2.10;;
15697;SDS011;7949;48.726;9.102;2022-11-15T00:56:02;3.63;;;2.00;;
15697;SDS011;7949;48.726;9.102;2022-11-15T00:58:30;3.63;;;1.90;;
15697;SDS011;7949;48.726;9.102;2022-11-15T01:01:04;3.27;;;1.80;;
15697;SDS011;7949;48.726;9.102;2022-11-15T01:03:32;4.80;;;1.90;;
15697;SDS011;7949;48.726;9.102;2022-11-15T01:05:59;3.87;;;1.90;;
15697;SDS011;7949;48.726;9.102;2022-11-15T01:08:26;2.37;;;1.43;;
15697;SDS011;7949;48.726;9.102;2022-11-15T01:10:53;2.47;;;1.67;;
15697;SDS011;7949;48.726;9.102;2022-11-15T01:13:19;3.87;;;1.77;;
15697;SDS011;7949;48.726;9.102;2022-11-15T01:15:48;3.60;;;1.30;;
15697;SDS011;7949;48.726;9.102;2022-11-15T01:18:14;4.27;;;1.53;;
15697;SDS011;7949;48.726;9.102;2022-11-15T01:20:41;3.80;;;1.53;;
15697;SDS011;7949;48.726;9.102;2022-11-15T01:23:09;3.57;;;1.73;;
15697;SDS011;7949;48.726;9.102;2022-11-15T01:25:36;2.90;;;1.30;;
15697;SDS011;7949;48.726;9.102;2022-11-15T01:28:02;2.57;;;1.50;;
15697;SDS011;7949;48.726;9.102;2022-11-15T01:30:30;4.10;;;1.83;;
15697;SDS011;7949;48.726;9.102;2022-11-15T01:32:58;5.17;;;1.90;;
15697;SDS011;7949;48.726;9.102;2022-11-15T01:35:24;2.87;;;1.40;;
15697;SDS011;7949;48.726;9.102;2022-11-15T01:37:51;3.63;;;1.40;;
15697;SDS011;7949;48.726;9.102;2022-11-15T01:40:18;4.10;;;1.40;;
15697;SDS011;7949;48.726;9.102;2022-11-15T01:42:45;4.37;;;1.80;;
15697;SDS011;7949;48.726;9.102;2022-11-15T01:45:12;2.43;;;1.27;;
15697;SDS011;7949;48.726;9.102;2022-11-15T01:47:41;2.60;;;1.43;;
15697;SDS011;7949;48.726;9.102;2022-11-15T01:50:13;7.20;;;1.73;;
15697;SDS011;7949;48.726;9.102;2022-11-15T01:52:43;3.00;;;1.40;;
15697;SDS011;7949;48.726;9.102;2022-11-15T01:55:11;3.37;;;1.70;;
15697;SDS011;7949;48.726;9.102;2022-11-15T01:57:40;2.77;;;1.93;;
15697;SDS011;7949;48.726;9.102;2022-11-15T02:00:11;3.03;;;1.53;;
15697;SDS011;7949;48.726;9.102;2022-11-15T02:02:39;5.30;;;1.37;;
15697;SDS011;7949;48.726;9.102;2022-11-15T02:05:06;3.20;;;1.40;;
15697;SDS011;7949;48.726;9.102;2022-11-15T02:07:35;4.27;;;1.67;;
15697;SDS011;7949;48.726;9.102;2022-11-15T02:10:04;2.37;;;1.50;;
15697;SDS011;7949;48.726;9.102;2022-11-15T02:12:34;6.00;;;1.80;;
15697;SDS011;7949;48.726;9.102;2022-11-15T02:15:01;2.80;;;1.40;;
15697;SDS011;7949;48.726;9.102;2022-11-15T02:17:37;4.50;;;1.57;;
15697;SDS011;7949;48.726;9.102;2022-11-15T02:20:31;6.73;;;1.60;;
15697;SDS011;7949;48.726;9.102;2022-11-15T02:26:19;2.63;;;1.60;;
15697;SDS011;7949;48.726;9.102;2022-11-15T02:28:59;2.63;;;1.77;;
15697;SDS011;7949;48.726;9.102;2022-11-15T02:31:31;4.03;;;1.67;;
15697;SDS011;7949;48.726;9.102;2022-11-15T02:34:08;3.50;;;1.60;;
15697;SDS011;7949;48.726;9.102;2022-11-15T02:36:41;4.23;;;1.50;;
15697;SDS011;7949;48.726;9.102;2022-11-15T02:39:17;5.33;;;1.83;;
15697;SDS011;7949;48.726;9.102;2022-11-15T02:41:52;3.30;;;1.53;;
15697;SDS011;7949;48.726;9.102;2022-11-15T02:44:24;2.43;;;1.50;;
15697;SDS011;7949;48.726;9.102;2022-11-15T02:46:57;5.10;;;1.60;;
15697;SDS011;7949;48.726;9.102;2022-11-15T02:49:41;6.83;;;2.30;;
15697;SDS011;7949;48.726;9.102;2022-11-15T02:52:14;3.27;;;1.60;;
15697;SDS011;7949;48.726;9.102;2022-11-15T02:54:42;3.43;;;2.10;;
15697;SDS011;7949;48.726;9.102;2022-11-15T02:57:10;4.37;;;1.67;;
15697;SDS011;7949;48.726;9.102;2022-11-15T03:02:36;3.83;;;1.97;;
15697;SDS011;7949;48.726;9.102;2022-11-15T03:05:19;7.97;;;1.90;;
15697;SDS011;7949;48.726;9.102;2022-11-15T03:07:52;7.53;;;2.10;;
15697;SDS011;7949;48.726;9.102;2022-11-15T03:10:24;3.90;;;2.07;;
15697;SDS011;7949;48.726;9.102;2022-11-15T03:12:59;2.37;;;1.70;;
15697;SDS011;7949;48.726;9.102;2022-11-15T03:15:38;3.43;;;2.03;;
15697;SDS011;7949;48.726;9.102;2022-11-15T03:18:12;5.03;;;2.40;;
15697;SDS011;7949;48.726;9.102;2022-11-15T03:20:45;4.07;;;2.70;;
15697;SDS011;7949;48.726;9.102;2022-11-15T03:23:14;6.10;;;2.07;;
15697;SDS011;7949;48.726;9.102;2022-11-15T03:25:43;5.03;;;1.83;;
15697;SDS011;7949;48.726;9.102;2022-11-15T03:28:16;3.90;;;1.80;;
15697;SDS011;7949;48.726;9.102;2022-11-15T03:30:47;6.50;;;2.10;;
15697;SDS011;7949;48.726;9.102;2022-11-15T03:33:18;3.53;;;2.10;;
15697;SDS011;7949;48.726;9.102;2022-11-15T03:35:47;5.07;;;2.23;;
15697;SDS011;7949;48.726;9.102;2022-11-15T03:38:15;4.33;;;2.00;;
15697;SDS011;7949;48.726;9.102;2022-11-15T03:40:49;4.97;;;2.50;;
15697;SDS011;7949;48.726;9.102;2022-11-15T03:43:24;7.33;;;2.90;;
15697;SDS011;7949;48.726;9.102;2022-11-15T03:46:01;5.27;;;2.70;;
15697;SDS011;7949;48.726;9.102;2022-11-15T03:48:33;3.50;;;2.17;;
15697;SDS011;7949;48.726;9.102;2022-11-15T03:51:03;4.67;;;2.27;;
15697;SDS011;7949;48.726;9.102;2022-11-15T03:53:31;6.07;;;2.40;;
15697;SDS011;7949;48.726;9.102;2022-11-15T03:55:58;5.87;;;2.63;;
15697;SDS011;7949;48.726;9.102;2022-11-15T03:58:25;4.27;;;2.40;;
15697;SDS011;7949;48.726;9.102;2022-11-15T04:00:51;6.33;;;3.03;;
15697;SDS011;7949;48.726;9.102;2022-11-15T04:03:18;4.30;;;2.53;;
15697;SDS011;7949;48.726;9.102;2022-11-15T04:05:46;3.63;;;2.07;;
15697;SDS011;7949;48.726;9.102;2022-11-15T04:08:13;5.60;;;2.70;;
15697;SDS011;7949;48.726;9.102;2022-11-15T04:10:40;5.00;;;2.33;;
15697;SDS011;7949;48.726;9.102;2022-11-15T04:13:07;5.93;;;2.40;;
15697;SDS011;7949;48.726;9.102;2022-11-15T04:15:33;4.13;;;2.23;;
15697;SDS011;7949;48.726;9.102;2022-11-15T04:18:01;5.23;;;2.40;;
15697;SDS011;7949;48.726;9.102;2022-11-15T04:20:29;5.67;;;2.10;;
15697;SDS011;7949;48.726;9.102;2022-11-15T04:23:16;4.60;;;2.37;;
15697;SDS011;7949;48.726;9.102;2022-11-15T04:26:03;4.33;;;2.23;;
15697;SDS011;7949;48.726;9.102;2022-11-15T04:28:32;5.87;;;2.50;;
15697;SDS011;7949;48.726;9.102;2022-11-15T04:30:59;3.57;;;2.10;;
15697;SDS011;7949;48.726;9.102;2022-11-15T04:33:26;7.67;;;2.77;;
15697;SDS011;7949;48.726;9.102;2022-11-15T04:35:52;5.27;;;2.43;;
15697;SDS011;7949;48.726;9.102;2022-11-15T04:38:37;3.30;;;2.20;;
15697;SDS011;7949;48.726;9.102;2022-11-15T04:41:04;4.37;;;2.30;;
15697;SDS011;7949;48.726;9.102;2022-11-15T04:43:31;4.03;;;2.00;;
15697;SDS011;7949;48.726;9.102;2022-11-15T04:45:58;4.57;;;2.43;;
15697;SDS011;7949;48.726;9.102;2022-11-15T04:48:24;4.07;;;2.30;;
15697;SDS011;7949;48.726;9.102;2022-11-15T04:50:51;4.63;;;2.00;;
15697;SDS011;7949;48.726;9.102;2022-11-15T04:53:18;4.37;;;2.10;;
15697;SDS011;7949;48.726;9.102;2022-11-15T04:55:46;3.60;;;2.37;;
15697;SDS011;7949;48.726;9.102;2022-11-15T04:58:13;2.93;;;2.00;;
15697;SDS011;7949;48.726;9.102;2022-11-15T05:00:40;5.10;;;2.60;;
15697;SDS011;7949;48.726;9.102;2022-11-15T05:03:08;3.40;;;2.13;;
15697;SDS011;7949;48.726;9.102;2022-11-15T05:05:53;3.80;;;2.27;;
15697;SDS011;7949;48.726;9.102;2022-11-15T05:08:20;5.30;;;2.23;;
15697;SDS011;7949;48.726;9.102;2022-11-15T05:10:48;3.60;;;2.10;;
15697;SDS011;7949;48.726;9.102;2022-11-15T05:13:15;5.90;;;2.33;;
15697;SDS011;7949;48.726;9.102;2022-11-15T05:15:42;3.57;;;2.00;;
15697;SDS011;7949;48.726;9.102;2022-11-15T05:18:08;3.77;;;2.13;;
15697;SDS011;7949;48.726;9.102;2022-11-15T05:20:35;4.20;;;2.50;;
15697;SDS011;7949;48.726;9.102;2022-11-15T05:23:02;3.80;;;2.30;;
15697;SDS011;7949;48.726;9.102;2022-11-15T05:25:29;8.13;;;2.40;;
15697;SDS011;7949;48.726;9.102;2022-11-15T05:27:57;3.93;;;2.57;;
15697;SDS011;7949;48.726;9.102;2022-11-15T05:30:24;5.33;;;2.33;;
15697;SDS011;7949;48.726;9.102;2022-11-15T05:32:51;4.93;;;3.00;;
15697;SDS011;7949;48.726;9.102;2022-11-15T05:35:18;4.97;;;2.40;;
15697;SDS011;7949;48.726;9.102;2022-11-15T05:37:51;6.70;;;2.63;;
15697;SDS011;7949;48.726;9.102;2022-11-15T05:40:18;4.10;;;2.63;;
15697;SDS011;7949;48.726;9.102;2022-11-15T05:42:45;4.27;;;2.30;;
15697;SDS011;7949;48.726;9.102;2022-11-15T05:45:14;4.20;;;2.17;;
15697;SDS011;7949;48.726;9.102;2022-11-15T05:47:41;4.57;;;2.50;;
15697;SDS011;7949;48.726;9.102;2022-11-15T05:50:10;5.80;;;3.77;;
15697;SDS011;7949;48.726;9.102;2022-11-15T05:52:38;4.50;;;2.57;;
15697;SDS011;7949;48.726;9.102;2022-11-15T05:55:06;4.90;;;2.33;;
15697;SDS011;7949;48.726;9.102;2022-11-15T05:57:34;4.80;;;2.80;;
15697;SDS011;7949;48.726;9.102;2022-11-15T06:00:02;5.57;;;2.93;;
15697;SDS011;7949;48.726;9.102;2022-11-15T06:02:31;5.03;;;3.13;;
15697;SDS011;7949;48.726;9.102;2022-11-15T06:04:58;4.37;;;2.70;;
15697;SDS011;7949;48.726;9.102;2022-11-15T06:07:25;4.60;;;3.13;;
15697;SDS011;7949;48.726;9.102;2022-11-15T06:09:52;7.40;;;3.13;;
15697;SDS011;7949;48.726;9.102;2022-11-15T06:12:18;5.47;;;3.00;;
15697;SDS011;7949;48.726;9.102;2022-11-15T06:14:45;4.50;;;2.83;;
15697;SDS011;7949;48.726;9.102;2022-11-15T06:17:12;4.07;;;2.77;;
15697;SDS011;7949;48.726;9.102;2022-11-15T06:19:41;10.10;;;3.07;;
15697;SDS011;7949;48.726;9.102;2022-11-15T06:22:08;9.23;;;3.23;;
15697;SDS011;7949;48.726;9.102;2022-11-15T06:24:34;6.53;;;3.00;;
15697;SDS011;7949;48.726;9.102;2022-11-15T06:27:01;6.67;;;3.93;;
15697;SDS011;7949;48.726;9.102;2022-11-15T06:29:28;7.13;;;3.77;;
15697;SDS011;7949;48.726;9.102;2022-11-15T06:31:55;10.03;;;4.40;;
15697;SDS011;7949;48.726;9.102;2022-11-15T06:34:22;8.20;;;4.60;;
15697;SDS011;7949;48.726;9.102;2022-11-15T06:36:51;7.70;;;4.17;;
15697;SDS011;7949;48.726;9.102;2022-11-15T06:39:17;6.10;;;3.80;;
15697;SDS011;7949;48.726;9.102;2022-11-15T06:41:45;7.17;;;4.07;;
15697;SDS011;7949;48.726;9.102;2022-11-15T06:44:12;9.23;;;4.53;;
15697;SDS011;7949;48.726;9.102;2022-11-15T06:46:39;7.43;;;4.43;;
15697;SDS011;7949;48.726;9.102;2022-11-15T06:49:05;8.03;;;4.03;;
15697;SDS011;7949;48.726;9.102;2022-11-15T06:51:32;12.47;;;5.23;;
15697;SDS011;7949;48.726;9.102;2022-11-15T06:54:01;10.43;;;5.57;;
15697;SDS011;7949;48.726;9.102;2022-11-15T06:56:28;10.20;;;6.20;;
15697;SDS011;7949;48.726;9.102;2022-11-15T06:58:55;8.87;;;5.53;;
15697;SDS011;7949;48.726;9.102;2022-11-15T07:01:21;15.60;;;6.37;;
15697;SDS011;7949;48.726;9.102;2022-11-15T07:03:48;15.40;;;5.97;;
15697;SDS011;7949;48.726;9.102;2022-11-15T07:06:15;10.93;;;5.90;;
15697;SDS011;7949;48.726;9.102;2022-11-15T07:08:42;10.73;;;5.40;;
15697;SDS011;7949;48.726;9.102;2022-11-15T07:11:10;10.53;;;5.10;;
15697;SDS011;7949;48.726;9.102;2022-11-15T07:13:37;18.90;;;5.90;;
15697;SDS011;7949;48.726;9.102;2022-11-15T07:16:05;15.07;;;5.07;;
15697;SDS011;7949;48.726;9.102;2022-11-15T07:18:33;12.10;;;4.87;;
15697;SDS011;7949;48.726;9.102;2022-11-15T07:21:01;10.27;;;5.30;;
15697;SDS011;7949;48.726;9.102;2022-11-15T07:23:29;10.87;;;5.73;;
15697;SDS011;7949;48.726;9.102;2022-11-15T07:25:57;9.77;;;5.40;;
15697;SDS011;7949;48.726;9.102;2022-11-15T07:28:26;20.97;;;6.33;;
15697;SDS011;7949;48.726;9.102;2022-11-15T07:30:53;15.27;;;6.23;;
15697;SDS011;7949;48.726;9.102;2022-11-15T07:33:21;16.63;;;5.63;;
15697;SDS011;7949;48.726;9.102;2022-11-15T07:35:48;9.80;;;4.90;;
15697;SDS011;7949;48.726;9.102;2022-11-15T07:38:15;12.57;;;5.43;;
15697;SDS011;7949;48.726;9.102;2022-11-15T07:40:44;10.43;;;6.00;;
15697;SDS011;7949;48.726;9.102;2022-11-15T07:43:11;12.13;;;5.47;;
15697;SDS011;7949;48.726;9.102;2022-11-15T07:45:41;10.73;;;4.30;;
15697;SDS011;7949;48.726;9.102;2022-11-15T07:48:09;8.33;;;4.13;;
15697;SDS011;7949;48.726;9.102;2022-11-15T07:50:36;8.80;;;3.73;;
15697;SDS011;7949;48.726;9.102;2022-11-15T07:53:03;9.20;;;3.60;;
15697;SDS011;7949;48.726;9.102;2022-11-15T07:55:30;10.47;;;4.43;;
15697;SDS011;7949;48.726;9.102;2022-11-15T07:58:00;8.53;;;3.80;;
15697;SDS011;7949;48.726;9.102;2022-11-15T08:00:28;10.80;;;4.47;;
15697;SDS011;7949;48.726;9.102;2022-11-15T08:03:02;9.57;;;5.30;;
15697;SDS011;7949;48.726;9.102;2022-11-15T08:05:29;12.83;;;6.63;;
15697;SDS011;7949;48.726;9.102;2022-11-15T08:07:57;17.03;;;7.60;;
15697;SDS011;7949;48.726;9.102;2022-11-15T08:10:24;11.23;;;5.70;;
15697;SDS011;7949;48.726;9.102;2022-11-15T08:12:56;16.53;;;6.50;;
15697;SDS011;7949;48.726;9.102;2022-11-15T08:15:24;16.57;;;7.43;;
15697;SDS011;7949;48.726;9.102;2022-11-15T08:17:55;16.27;;;7.20;;
15697;SDS011;7949;48.726;9.102;2022-11-15T08:20:24;14.43;;;6.73;;
15697;SDS011;7949;48.726;9.102;2022-11-15T08:22:54;13.33;;;6.13;;
15697;SDS011;7949;48.726;9.102;2022-11-15T08:25:21;11.63;;;5.57;;
15697;SDS011;7949;48.726;9.102;2022-11-15T08:27:51;9.73;;;4.80;;
15697;SDS011;7949;48.726;9.102;2022-11-15T08:30:18;8.40;;;3.80;;
15697;SDS011;7949;48.726;9.102;2022-11-15T08:32:45;6.57;;;3.70;;
15697;SDS011;7949;48.726;9.102;2022-11-15T08:35:12;5.03;;;3.27;;
15697;SDS011;7949;48.726;9.102;2022-11-15T08:37:41;9.57;;;3.83;;
15697;SDS011;7949;48.726;9.102;2022-11-15T08:40:08;11.77;;;3.17;;
15697;SDS011;7949;48.726;9.102;2022-11-15T08:42:36;8.83;;;3.20;;
15697;SDS011;7949;48.726;9.102;2022-11-15T08:45:03;7.73;;;2.97;;
15697;SDS011;7949;48.726;9.102;2022-11-15T08:47:31;5.40;;;2.83;;
15697;SDS011;7949;48.726;9.102;2022-11-15T08:49:58;4.93;;;2.27;;
15697;SDS011;7949;48.726;9.102;2022-11-15T08:52:24;5.10;;;1.80;;
15697;SDS011;7949;48.726;9.102;2022-11-15T08:54:53;4.67;;;2.10;;
15697;SDS011;7949;48.726;9.102;2022-11-15T08:57:22;3.37;;;1.50;;
15697;SDS011;7949;48.726;9.102;2022-11-15T08:59:49;3.40;;;1.63;;
15697;SDS011;7949;48.726;9.102;2022-11-15T09:02:16;5.60;;;1.33;;
15697;SDS011;7949;48.726;9.102;2022-11-15T09:04:43;3.57;;;1.13;;
15697;SDS011;7949;48.726;9.102;2022-11-15T09:07:10;4.23;;;1.60;;
15697;SDS011;7949;48.726;9.102;2022-11-15T09:09:37;1.80;;;1.10;;
15697;SDS011;7949;48.726;9.102;2022-11-15T09:12:06;3.43;;;1.50;;
15697;SDS011;7949;48.726;9.102;2022-11-15T09:14:34;4.50;;;1.20;;
15697;SDS011;7949;48.726;9.102;2022-11-15T09:17:01;2.47;;;1.30;;
15697;SDS011;7949;48.726;9.102;2022-11-15T09:19:28;3.00;;;1.30;;
15697;SDS011;7949;48.726;9.102;2022-11-15T09:21:55;4.87;;;1.40;;
15697;SDS011;7949;48.726;9.102;2022-11-15T09:24:22;2.30;;;1.23;;
15697;SDS011;7949;48.726;9.102;2022-11-15T09:26:49;1.63;;;1.13;;
15697;SDS011;7949;48.726;9.102;2022-11-15T09:29:18;5.57;;;1.47;;
15697;SDS011;7949;48.726;9.102;2022-11-15T09:31:45;3.27;;;1.20;;
15697;SDS011;7949;48.726;9.102;2022-11-15T09:34:12;2.20;;;1.30;;
15697;SDS011;7949;48.726;9.102;2022-11-15T09:36:39;3.77;;;1.33;;
15697;SDS011;7949;48.726;9.102;2022-11-15T09:39:06;2.53;;;1.20;;
15697;SDS011;7949;48.726;9.102;2022-11-15T09:41:36;2.00;;;1.30;;
15697;SDS011;7949;48.726;9.102;2022-11-15T09:44:33;1.67;;;1.00;;
15697;SDS011;7949;48.726;9.102;2022-11-15T09:47:15;2.20;;;1.13;;
15697;SDS011;7949;48.726;9.102;2022-11-15T09:50:07;2.77;;;0.80;;
15697;SDS011;7949;48.726;9.102;2022-11-15T09:52:37;2.10;;;1.07;;
15697;SDS011;7949;48.726;9.102;2022-11-15T09:55:07;4.57;;;1.20;;
15697;SDS011;7949;48.726;9.102;2022-11-15T09:57:37;3.20;;;1.23;;
15697;SDS011;7949;48.726;9.102;2022-11-15T10:00:11;3.43;;;1.17;;
15697;SDS011;7949;48.726;9.102;2022-11-15T10:02:46;2.50;;;1.13;;
15697;SDS011;7949;48.726;9.102;2022-11-15T10:05:45;4.43;;;1.10;;
15697;SDS011;7949;48.726;9.102;2022-11-15T10:08:20;3.93;;;1.20;;
15697;SDS011;7949;48.726;9.102;2022-11-15T10:11:03;3.47;;;1.03;;
15697;SDS011;7949;48.726;9.102;2022-11-15T10:13:33;2.07;;;1.20;;
15697;SDS011;7949;48.726;9.102;2022-11-15T10:16:04;2.80;;;1.27;;
15697;SDS011;7949;48.726;9.102;2022-11-15T10:18:45;3.10;;;1.10;;
15697;SDS011;7949;48.726;9.102;2022-11-15T10:21:18;3.60;;;1.10;;
15697;SDS011;7949;48.726;9.102;2022-11-15T10:23:48;4.03;;;1.20;;
15697;SDS011;7949;48.726;9.102;2022-11-15T10:26:16;3.23;;;1.10;;
15697;SDS011;7949;48.726;9.102;2022-11-15T10:28:44;1.87;;;0.80;;
15697;SDS011;7949;48.726;9.102;2022-11-15T10:31:22;3.57;;;1.43;;
15697;SDS011;7949;48.726;9.102;2022-11-15T10:33:51;2.23;;;1.07;;
15697;SDS011;7949;48.726;9.102;2022-11-15T10:36:24;3.70;;;1.57;;
15697;SDS011;7949;48.726;9.102;2022-11-15T10:38:53;6.00;;;1.57;;
15697;SDS011;7949;48.726;9.102;2022-11-15T10:41:22;3.13;;;1.73;;
15697;SDS011;7949;48.726;9.102;2022-11-15T10:47:06;2.67;;;1.20;;
15697;SDS011;7949;48.726;9.102;2022-11-15T10:49:55;5.53;;;1.20;;
15697;SDS011;7949;48.726;9.102;2022-11-15T10:52:27;4.20;;;1.23;;
15697;SDS011;7949;48.726;9.102;2022-11-15T10:54:57;2.00;;;1.30;;
15697;SDS011;7949;48.726;9.102;2022-11-15T10:57:29;2.50;;;1.33;;
15697;SDS011;7949;48.726;9.102;2022-11-15T10:59:59;3.43;;;1.20;;
15697;SDS011;7949;48.726;9.102;2022-11-15T11:02:33;4.73;;;1.50;;
15697;SDS011;7949;48.726;9.102;2022-11-15T11:05:03;2.97;;;1.40;;
15697;SDS011;7949;48.726;9.102;2022-11-15T11:07:32;2.57;;;1.40;;
15697;SDS011;7949;48.726;9.102;2022-11-15T11:10:01;2.97;;;1.60;;
15697;SDS011;7949;48.726;9.102;2022-11-15T11:12:31;4.93;;;1.73;;
15697;SDS011;7949;48.726;9.102;2022-11-15T11:14:59;3.97;;;1.47;;
15697;SDS011;7949;48.726;9.102;2022-11-15T11:17:41;3.10;;;1.70;;
15697;SDS011;7949;48.726;9.102;2022-11-15T11:20:25;2.90;;;1.60;;
15697;SDS011;7949;48.726;9.102;2022-11-15T11:23:04;2.33;;;1.50;;
15697;SDS011;7949;48.726;9.102;2022-11-15T11:25:50;3.70;;;1.50;;
15697;SDS011;7949;48.726;9.102;2022-11-15T11:28:30;1.63;;;1.23;;
15697;SDS011;7949;48.726;9.102;2022-11-15T11:31:07;3.27;;;1.67;;
15697;SDS011;7949;48.726;9.102;2022-11-15T11:33:49;4.77;;;1.57;;
15697;SDS011;7949;48.726;9.102;2022-11-15T11:36:25;2.53;;;1.30;;
15697;SDS011;7949;48.726;9.102;2022-11-15T11:39:00;6.30;;;1.37;;
15697;SDS011;7949;48.726;9.102;2022-11-15T11:41:42;2.40;;;1.23;;
15697;SDS011;7949;48.726;9.102;2022-11-15T11:44:23;2.37;;;1.27;;
15697;SDS011;7949;48.726;9.102;2022-11-15T11:46:58;2.10;;;0.93;;
15697;SDS011;7949;48.726;9.102;2022-11-15T11:49:30;3.27;;;1.50;;
15697;SDS011;7949;48.726;9.102;2022-11-15T11:52:07;1.80;;;1.20;;
15697;SDS011;7949;48.726;9.102;2022-11-15T11:54:39;3.20;;;1.10;;
15697;SDS011;7949;48.726;9.102;2022-11-15T11:57:13;1.40;;;0.90;;
15697;SDS011;7949;48.726;9.102;2022-11-15T11:59:48;2.00;;;1.00;;
15697;SDS011;7949;48.726;9.102;2022-11-15T12:02:21;3.67;;;1.27;;
15697;SDS011;7949;48.726;9.102;2022-11-15T12:04:57;3.67;;;1.20;;
15697;SDS011;7949;48.726;9.102;2022-11-15T12:07:30;4.00;;;1.60;;
15697;SDS011;7949;48.726;9.102;2022-11-15T12:10:01;1.63;;;0.90;;
15697;SDS011;7949;48.726;9.102;2022-11-15T12:12:32;2.63;;;1.20;;
15697;SDS011;7949;48.726;9.102;2022-11-15T12:15:09;3.27;;;0.93;;
15697;SDS011;7949;48.726;9.102;2022-11-15T12:17:41;2.13;;;0.90;;
15697;SDS011;7949;48.726;9.102;2022-11-15T12:20:15;2.70;;;1.10;;
15697;SDS011;7949;48.726;9.102;2022-11-15T12:22:46;3.20;;;1.10;;
15697;SDS011;7949;48.726;9.102;2022-11-15T12:25:18;3.87;;;1.00;;
15697;SDS011;7949;48.726;9.102;2022-11-15T12:27:50;1.30;;;0.93;;
15697;SDS011;7949;48.726;9.102;2022-11-15T12:30:21;2.47;;;1.10;;
15697;SDS011;7949;48.726;9.102;2022-11-15T12:32:49;3.00;;;1.00;;
15697;SDS011;7949;48.726;9.102;2022-11-15T12:35:29;1.90;;;1.00;;
15697;SDS011;7949;48.726;9.102;2022-11-15T12:37:59;1.30;;;0.80;;
15697;SDS011;7949;48.726;9.102;2022-11-15T12:40:33;1.47;;;0.80;;
15697;SDS011;7949;48.726;9.102;2022-11-15T12:46:01;2.20;;;1.37;;
15697;SDS011;7949;48.726;9.102;2022-11-15T12:48:47;3.07;;;1.40;;
15697;SDS011;7949;48.726;9.102;2022-11-15T12:51:18;2.00;;;1.30;;
15697;SDS011;7949;48.726;9.102;2022-11-15T12:53:46;1.50;;;1.00;;
15697;SDS011;7949;48.726;9.102;2022-11-15T12:56:20;3.93;;;1.33;;
15697;SDS011;7949;48.726;9.102;2022-11-15T12:58:49;2.57;;;1.07;;
15697;SDS011;7949;48.726;9.102;2022-11-15T13:04:23;3.47;;;1.17;;
15697;SDS011;7949;48.726;9.102;2022-11-15T13:06:54;3.37;;;1.40;;
15697;SDS011;7949;48.726;9.102;2022-11-15T13:20:53;2.30;;;1.30;;
15697;SDS011;7949;48.726;9.102;2022-11-15T13:23:21;1.50;;;1.00;;
15697;SDS011;7949;48.726;9.102;2022-11-15T13:25:54;3.73;;;1.40;;
15697;SDS011;7949;48.726;9.102;2022-11-15T13:28:36;4.03;;;2.07;;
15697;SDS011;7949;48.726;9.102;2022-11-15T13:31:14;4.83;;;1.90;;
15697;SDS011;7949;48.726;9.102;2022-11-15T13:33:47;2.60;;;1.30;;
15697;SDS011;7949;48.726;9.102;2022-11-15T13:36:15;3.97;;;1.80;;
15697;SDS011;7949;48.726;9.102;2022-11-15T13:38:53;2.30;;;1.23;;
15697;SDS011;7949;48.726;9.102;2022-11-15T13:41:22;2.37;;;1.20;;
15697;SDS011;7949;48.726;9.102;2022-11-15T13:43:50;1.97;;;1.40;;
15697;SDS011;7949;48.726;9.102;2022-11-15T13:46:19;1.83;;;1.10;;
15697;SDS011;7949;48.726;9.102;2022-11-15T13:48:50;2.10;;;1.40;;
15697;SDS011;7949;48.726;9.102;2022-11-15T13:51:20;2.20;;;1.20;;
15697;SDS011;7949;48.726;9.102;2022-11-15T13:54:00;3.67;;;1.60;;
15697;SDS011;7949;48.726;9.102;2022-11-15T13:56:32;2.00;;;1.20;;
15697;SDS011;7949;48.726;9.102;2022-11-15T13:59:00;2.57;;;1.33;;
15697;SDS011;7949;48.726;9.102;2022-11-15T14:01:34;4.67;;;1.53;;
15697;SDS011;7949;48.726;9.102;2022-11-15T14:04:00;4.03;;;1.50;;
15697;SDS011;7949;48.726;9.102;2022-11-15T14:06:29;3.67;;;1.63;;
15697;SDS011;7949;48.726;9.102;2022-11-15T14:08:58;2.43;;;1.73;;
15697;SDS011;7949;48.726;9.102;2022-11-15T14:11:59;4.40;;;1.90;;
15697;SDS011;7949;48.726;9.102;2022-11-15T14:14:28;3.43;;;1.97;;
15697;SDS011;7949;48.726;9.102;2022-11-15T14:16:56;1.97;;;1.40;;
15697;SDS011;7949;48.726;9.102;2022-11-15T14:19:35;2.70;;;1.70;;
15697;SDS011;7949;48.726;9.102;2022-11-15T14:22:13;3.50;;;1.90;;
15697;SDS011;7949;48.726;9.102;2022-11-15T14:24:43;3.67;;;2.20;;
15697;SDS011;7949;48.726;9.102;2022-11-15T14:27:23;6.20;;;3.60;;
15697;SDS011;7949;48.726;9.102;2022-11-15T14:29:51;10.30;;;3.93;;
15697;SDS011;7949;48.726;9.102;2022-11-15T14:32:19;15.50;;;5.20;;
15697;SDS011;7949;48.726;9.102;2022-11-15T14:34:47;8.53;;;4.37;;
15697;SDS011;7949;48.726;9.102;2022-11-15T14:37:18;14.97;;;4.50;;
15697;SDS011;7949;48.726;9.102;2022-11-15T14:39:47;12.73;;;4.67;;
15697;SDS011;7949;48.726;9.102;2022-11-15T14:42:15;15.50;;;5.30;;
15697;SDS011;7949;48.726;9.102;2022-11-15T14:44:43;15.00;;;4.90;;
15697;SDS011;7949;48.726;9.102;2022-11-15T14:47:10;16.43;;;5.33;;
15697;SDS011;7949;48.726;9.102;2022-11-15T14:49:37;15.67;;;5.67;;
15697;SDS011;7949;48.726;9.102;2022-11-15T14:52:07;12.83;;;6.10;;
15697;SDS011;7949;48.726;9.102;2022-11-15T14:54:45;14.00;;;5.80;;
15697;SDS011;7949;48.726;9.102;2022-11-15T14:57:12;16.00;;;5.60;;
15697;SDS011;7949;48.726;9.102;2022-11-15T14:59:39;17.20;;;5.10;;
15697;SDS011;7949;48.726;9.102;2022-11-15T15:02:10;21.03;;;6.90;;
15697;SDS011;7949;48.726;9.102;2022-11-15T15:04:42;24.63;;;5.97;;
15697;SDS011;7949;48.726;9.102;2022-11-15T15:07:09;23.50;;;6.50;;
15697;SDS011;7949;48.726;9.102;2022-11-15T15:09:36;16.20;;;5.90;;
15697;SDS011;7949;48.726;9.102;2022-11-15T15:12:03;14.97;;;5.37;;
15697;SDS011;7949;48.726;9.102;2022-11-15T15:14:31;10.73;;;5.30;;
15697;SDS011;7949;48.726;9.102;2022-11-15T15:16:58;9.77;;;5.00;;
15697;SDS011;7949;48.726;9.102;2022-11-15T15:19:27;13.20;;;5.50;;
15697;SDS011;7949;48.726;9.102;2022-11-15T15:21:57;12.27;;;4.90;;
15697;SDS011;7949;48.726;9.102;2022-11-15T15:24:23;9.80;;;5.07;;
15697;SDS011;7949;48.726;9.102;2022-11-15T15:26:53;7.93;;;5.30;;
15697;SDS011;7949;48.726;9.102;2022-11-15T15:29:20;18.60;;;5.20;;
15697;SDS011;7949;48.726;9.102;2022-11-15T15:31:47;10.97;;;4.93;;
15697;SDS011;7949;48.726;9.102;2022-11-15T15:34:14;6.33;;;4.67;;
15697;SDS011;7949;48.726;9.102;2022-11-15T15:36:42;7.90;;;4.93;;
15697;SDS011;7949;48.726;9.102;2022-11-15T15:39:10;9.07;;;5.63;;
15697;SDS011;7949;48.726;9.102;2022-11-15T15:41:37;10.57;;;5.13;;
15697;SDS011;7949;48.726;9.102;2022-11-15T15:44:04;11.07;;;5.00;;
15697;SDS011;7949;48.726;9.102;2022-11-15T15:46:31;12.20;;;4.63;;